Time;durP1;ratioP1;P1;durP2;ratioP2;P2;SDS_P1;SDS_P2;PMS_P1;PMS_P2;Temp;Humidity;BMP_temperature;BMP_pressure;BME280_temperature;BME280_humidity;BME280_pressure;Samples;Min_cycle;Max_cycle;Signal;HPM_P1;HPM_P2
2022/03/21 00:02:04;;;;;;;62.13;46.58;;;3.80;99.90;;;;;;5015760;28;20121;-64
2022/03/21 00:04:29;;;;;;;63.30;45.28;;;3.80;99.90;;;;;;5015459;28;20056;-64
2022/03/21 00:06:56;;;;;;;60.85;45.10;;;3.80;99.90;;;;;;5015856;28;20071;-64
2022/03/21 00:09:21;;;;;;;65.70;47.20;;;3.80;99.90;;;;;;5014945;28;20088;-64
2022/03/21 00:11:50;;;;;;;64.75;48.47;;;3.70;99.90;;;;;;5014879;28;20054;-64
2022/03/21 00:14:16;;;;;;;64.75;47.17;;;3.70;99.90;;;;;;5015570;28;20157;-64
2022/03/21 00:16:43;;;;;;;66.72;46.95;;;3.70;99.90;;;;;;5015576;28;20050;-64
2022/03/21 00:19:09;;;;;;;64.88;47.88;;;3.70;99.90;;;;;;5014977;28;20042;-64
2022/03/21 00:21:35;;;;;;;61.58;46.85;;;3.70;99.90;;;;;;5015526;28;20081;-64
2022/03/21 00:24:01;;;;;;;63.10;46.83;;;3.70;99.90;;;;;;5015504;28;20080;-63
2022/03/21 00:26:27;;;;;;;63.47;45.42;;;3.60;99.90;;;;;;5015382;28;20060;-64
2022/03/21 00:28:53;;;;;;;57.65;45.95;;;3.60;99.90;;;;;;5014612;28;20065;-65
2022/03/21 00:31:19;;;;;;;63.45;46.75;;;3.60;99.90;;;;;;5015125;28;20081;-64
2022/03/21 00:33:45;;;;;;;60.95;45.00;;;3.60;99.90;;;;;;5015245;28;20116;-65
2022/03/21 00:36:10;;;;;;;54.97;43.10;;;3.60;99.90;;;;;;5015455;28;20088;-64
2022/03/21 00:38:37;;;;;;;59.88;44.60;;;3.60;99.90;;;;;;5014104;28;20535;-64
2022/03/21 00:41:04;;;;;;;61.97;45.78;;;3.60;99.90;;;;;;5015306;28;20038;-64
2022/03/21 00:43:30;;;;;;;55.55;44.63;;;3.50;99.90;;;;;;5015107;28;20129;-64
2022/03/21 00:45:57;;;;;;;60.58;47.53;;;3.50;99.90;;;;;;5014678;28;20522;-63
2022/03/21 00:48:24;;;;;;;60.00;45.90;;;3.50;99.90;;;;;;5014794;28;20371;-63
2022/03/21 00:50:51;;;;;;;63.38;46.42;;;3.50;99.90;;;;;;5014429;28;20042;-64
2022/03/21 00:53:17;;;;;;;63.67;46.15;;;3.50;99.90;;;;;;5014825;28;20050;-64
2022/03/21 00:55:43;;;;;;;59.53;44.63;;;3.40;99.90;;;;;;5015073;28;20109;-64
2022/03/21 00:58:09;;;;;;;60.38;45.60;;;3.50;99.90;;;;;;5014542;28;20113;-65
2022/03/21 01:00:34;;;;;;;62.45;46.28;;;3.40;99.90;;;;;;5014349;28;20415;-64
2022/03/21 01:03:01;;;;;;;58.88;45.53;;;3.40;99.90;;;;;;5014326;28;20371;-65
2022/03/21 01:05:27;;;;;;;61.47;47.28;;;3.40;99.90;;;;;;5014507;28;20125;-64
2022/03/21 01:07:54;;;;;;;63.97;48.60;;;3.40;99.90;;;;;;5014343;28;20113;-64
2022/03/21 01:10:21;;;;;;;64.10;46.88;;;3.50;99.90;;;;;;5014021;28;20636;-64
2022/03/21 01:12:48;;;;;;;63.80;48.22;;;3.50;99.90;;;;;;5013897;28;20478;-64
2022/03/21 01:15:16;;;;;;;65.03;48.55;;;3.50;99.90;;;;;;5014740;28;20030;-64
2022/03/21 01:17:44;;;;;;;67.95;48.67;;;3.50;99.90;;;;;;5014174;28;20173;-66
2022/03/21 01:20:11;;;;;;;64.93;47.80;;;3.40;99.90;;;;;;5014190;28;20076;-66
2022/03/21 01:22:37;;;;;;;66.28;47.88;;;3.40;99.90;;;;;;5013871;28;20045;-63
2022/03/21 01:25:03;;;;;;;62.90;46.70;;;3.50;99.90;;;;;;5014313;28;20068;-64
2022/03/21 01:27:29;;;;;;;65.82;49.30;;;3.40;99.90;;;;;;5013830;28;20451;-63
2022/03/21 01:29:55;;;;;;;62.88;48.42;;;3.40;99.90;;;;;;4996350;28;20065;-64
2022/03/21 01:32:21;;;;;;;65.45;49.35;;;3.40;99.90;;;;;;5014020;28;20038;-64
2022/03/21 01:34:47;;;;;;;62.60;45.40;;;3.30;99.90;;;;;;4997048;28;20045;-63
2022/03/21 01:37:13;;;;;;;68.80;49.47;;;3.30;99.90;;;;;;5014138;28;20042;-63
2022/03/21 01:39:38;;;;;;;60.78;48.03;;;3.30;99.90;;;;;;5013963;28;20125;-63
2022/03/21 01:42:05;;;;;;;63.75;48.72;;;3.30;99.90;;;;;;5014221;28;20305;-63
2022/03/21 01:44:30;;;;;;;71.32;52.03;;;3.30;99.90;;;;;;5014125;28;20046;-65
2022/03/21 01:46:56;;;;;;;65.57;48.65;;;3.30;99.90;;;;;;5013687;28;20048;-63
2022/03/21 01:49:22;;;;;;;73.10;51.17;;;3.30;99.90;;;;;;5013001;28;20040;-64
2022/03/21 01:51:48;;;;;;;68.05;50.20;;;3.30;99.90;;;;;;5014148;28;20487;-63
2022/03/21 01:56:58;;;;;;;67.03;50.63;;;3.40;99.90;;;;;;5014291;28;20124;-63
2022/03/21 01:59:25;;;;;;;71.95;51.53;;;3.40;99.90;;;;;;5013536;28;20120;-63
2022/03/21 02:01:51;;;;;;;72.70;51.35;;;3.30;99.90;;;;;;5013923;28;20090;-63
2022/03/21 02:04:16;;;;;;;66.80;51.13;;;3.30;99.90;;;;;;5014079;28;20085;-63
2022/03/21 02:06:43;;;;;;;70.32;52.28;;;3.30;99.90;;;;;;4996511;28;20074;-63
2022/03/21 02:09:09;;;;;;;71.82;51.80;;;3.30;99.90;;;;;;5012982;28;20447;-63
2022/03/21 02:11:36;;;;;;;75.13;53.35;;;3.20;99.90;;;;;;5013714;28;20179;-63
2022/03/21 02:14:04;;;;;;;73.70;53.28;;;3.20;99.90;;;;;;5013939;28;20128;-62
2022/03/21 02:16:31;;;;;;;73.85;53.30;;;3.30;99.90;;;;;;5013774;28;20113;-63
2022/03/21 02:19:00;;;;;;;75.13;52.95;;;3.20;99.90;;;;;;5013264;28;20037;-63
2022/03/21 02:21:43;;;;;;;73.40;52.90;;;3.20;99.90;;;;;;5013767;28;20067;-63
2022/03/21 02:24:46;;;;;;;74.43;54.00;;;3.20;99.90;;;;;;5013592;28;20056;-63
2022/03/21 02:27:13;;;;;;;77.20;54.38;;;3.20;99.90;;;;;;5006845;28;20049;-63
2022/03/21 02:29:42;;;;;;;77.32;55.15;;;3.20;99.90;;;;;;5013289;28;20037;-63
2022/03/21 02:32:08;;;;;;;80.28;54.55;;;3.20;99.90;;;;;;5013659;28;20340;-63
2022/03/21 02:34:38;;;;;;;75.15;53.92;;;3.20;99.90;;;;;;5015010;28;20526;-63
2022/03/21 02:37:06;;;;;;;76.85;53.90;;;3.20;99.90;;;;;;5017144;28;20042;-62
2022/03/21 02:39:32;;;;;;;73.90;54.17;;;3.20;99.90;;;;;;5016846;28;20049;-63
2022/03/21 02:41:58;;;;;;;74.85;53.47;;;3.20;99.90;;;;;;5017365;28;20064;-63
2022/03/21 02:44:23;;;;;;;77.93;53.60;;;3.20;99.90;;;;;;5017285;28;20045;-62
2022/03/21 02:46:49;;;;;;;75.28;54.42;;;3.20;99.90;;;;;;5017220;28;20096;-64
2022/03/21 02:49:15;;;;;;;78.55;52.22;;;3.20;99.90;;;;;;5016529;28;20053;-66
2022/03/21 02:51:42;;;;;;;79.72;53.15;;;3.20;99.90;;;;;;5017269;28;20073;-64
2022/03/21 02:54:09;;;;;;;73.85;52.38;;;3.20;99.90;;;;;;5017182;28;20056;-66
2022/03/21 02:56:35;;;;;;;70.93;52.47;;;3.20;99.90;;;;;;5017229;28;20081;-64
2022/03/21 02:59:01;;;;;;;76.32;52.72;;;3.20;99.90;;;;;;5016087;28;20065;-65
2022/03/21 03:01:26;;;;;;;72.18;52.40;;;3.20;99.90;;;;;;5016741;28;20034;-64
2022/03/21 03:03:53;;;;;;;75.22;51.35;;;3.10;99.90;;;;;;5017017;28;20052;-65
2022/03/21 03:06:18;;;;;;;68.63;50.63;;;3.10;99.90;;;;;;4999694;28;20053;-63
2022/03/21 03:08:44;;;;;;;70.18;49.10;;;3.10;99.90;;;;;;5016560;28;20046;-63
2022/03/21 03:11:11;;;;;;;61.88;47.53;;;3.10;99.90;;;;;;5016317;28;20451;-63
2022/03/21 03:13:37;;;;;;;61.80;45.97;;;3.00;99.90;;;;;;5016841;28;20064;-64
2022/03/21 03:16:03;;;;;;;65.57;48.55;;;3.00;99.90;;;;;;5016705;28;20041;-64
2022/03/21 03:18:29;;;;;;;61.95;46.15;;;3.00;99.90;;;;;;5016453;28;20084;-64
2022/03/21 03:20:57;;;;;;;62.53;45.45;;;3.00;99.90;;;;;;5016410;28;20041;-63
2022/03/21 03:23:25;;;;;;;58.92;43.50;;;3.00;99.90;;;;;;5016605;28;20073;-64
2022/03/21 03:26:02;;;;;;;60.78;43.80;;;3.00;99.90;;;;;;5016333;28;20329;-65
2022/03/21 03:28:29;;;;;;;57.55;44.17;;;3.00;99.90;;;;;;5016166;28;20037;-64
2022/03/21 03:30:55;;;;;;;65.82;44.03;;;3.00;99.90;;;;;;5015949;28;20096;-63
2022/03/21 03:33:23;;;;;;;65.10;44.00;;;3.00;99.90;;;;;;5016547;28;20052;-65
2022/03/21 03:35:48;;;;;;;60.97;44.65;;;3.00;99.90;;;;;;5016375;28;20034;-64
2022/03/21 03:38:15;;;;;;;58.67;42.22;;;3.10;99.90;;;;;;5016029;28;20049;-64
2022/03/21 03:40:43;;;;;;;62.80;41.92;;;3.20;99.90;;;;;;5016180;28;20053;-64
2022/03/21 03:43:09;;;;;;;58.92;40.88;;;3.10;99.90;;;;;;5016191;28;20053;-64
2022/03/21 03:45:36;;;;;;;55.15;41.20;;;3.20;99.90;;;;;;5014788;28;20050;-64
2022/03/21 03:48:02;;;;;;;58.17;40.78;;;3.10;99.90;;;;;;5015292;28;20057;-64
2022/03/21 03:50:28;;;;;;;55.67;40.03;;;3.10;99.90;;;;;;5015333;28;20046;-64
2022/03/21 03:52:54;;;;;;;54.42;38.80;;;3.10;99.90;;;;;;5015985;28;20046;-63
2022/03/21 03:55:20;;;;;;;59.05;40.13;;;3.10;99.90;;;;;;5015915;28;20048;-65
2022/03/21 03:57:46;;;;;;;53.83;37.75;;;3.20;99.90;;;;;;5015674;28;20042;-64
2022/03/21 04:00:14;;;;;;;54.72;38.22;;;3.10;99.90;;;;;;5015661;28;20486;-63
2022/03/21 04:05:26;;;;;;;54.80;38.05;;;3.10;99.90;;;;;;5015889;28;20042;-64
2022/03/21 04:07:52;;;;;;;52.85;37.45;;;3.10;99.90;;;;;;5015133;28;20045;-64
2022/03/21 04:10:21;;;;;;;52.38;38.10;;;3.10;99.90;;;;;;5015509;28;20046;-63
2022/03/21 04:12:48;;;;;;;54.60;38.20;;;3.10;99.90;;;;;;5015063;28;20049;-64
2022/03/21 04:15:15;;;;;;;57.20;39.08;;;3.10;99.90;;;;;;5015644;28;20108;-64
2022/03/21 04:17:41;;;;;;;52.33;38.42;;;3.00;99.90;;;;;;5014945;28;20042;-67
2022/03/21 04:20:07;;;;;;;52.72;35.88;;;3.00;99.90;;;;;;5015205;28;20048;-64
2022/03/21 04:22:34;;;;;;;53.40;37.15;;;3.10;99.90;;;;;;5015283;28;20048;-63
2022/03/21 04:25:00;;;;;;;48.20;36.47;;;3.00;99.90;;;;;;5016045;28;20359;-63
2022/03/21 04:27:26;;;;;;;51.17;36.63;;;3.00;99.90;;;;;;5014993;28;20050;-63
2022/03/21 04:29:52;;;;;;;53.53;37.35;;;3.00;99.90;;;;;;5015457;28;20034;-63
2022/03/21 04:32:17;;;;;;;48.13;35.33;;;2.90;99.90;;;;;;5014964;28;20038;-64
2022/03/21 04:34:43;;;;;;;57.63;38.75;;;2.90;99.90;;;;;;5015060;28;20037;-64
2022/03/21 04:37:09;;;;;;;51.95;38.00;;;2.90;99.90;;;;;;5014823;28;20037;-64
2022/03/21 04:39:35;;;;;;;53.05;36.50;;;2.90;99.90;;;;;;5014434;28;20038;-63
2022/03/21 04:42:00;;;;;;;50.33;37.47;;;2.90;99.90;;;;;;5015054;28;20145;-66
2022/03/21 04:44:26;;;;;;;47.83;36.40;;;2.90;99.90;;;;;;5014676;28;20077;-63
2022/03/21 04:46:52;;;;;;;47.47;35.00;;;2.90;99.90;;;;;;5014624;28;20061;-65
2022/03/21 04:49:18;;;;;;;49.80;35.78;;;2.90;99.90;;;;;;5014583;28;20061;-63
2022/03/21 04:51:43;;;;;;;56.25;36.13;;;2.90;99.90;;;;;;5015046;28;20045;-64
2022/03/21 04:54:09;;;;;;;48.40;35.95;;;2.80;99.90;;;;;;4997265;28;20096;-63
2022/03/21 04:56:35;;;;;;;50.65;36.58;;;2.80;99.90;;;;;;4997141;28;20095;-64
2022/03/21 04:59:00;;;;;;;50.78;35.42;;;2.80;99.90;;;;;;5014043;28;20034;-65
2022/03/21 05:01:26;;;;;;;53.25;36.85;;;2.80;99.90;;;;;;5014589;28;20116;-64
2022/03/21 05:03:52;;;;;;;47.92;34.03;;;2.90;99.90;;;;;;5014791;28;20402;-65
2022/03/21 05:06:17;;;;;;;45.28;33.60;;;2.90;99.90;;;;;;5014697;28;20049;-63
2022/03/21 05:08:44;;;;;;;46.15;34.05;;;2.90;99.90;;;;;;5014533;28;20366;-64
2022/03/21 05:11:10;;;;;;;44.92;32.83;;;2.90;99.90;;;;;;5014225;28;20403;-64
2022/03/21 05:13:37;;;;;;;43.40;32.40;;;2.80;99.90;;;;;;5014659;28;20042;-63
2022/03/21 05:16:05;;;;;;;47.53;34.75;;;2.90;99.90;;;;;;5014375;28;20133;-65
2022/03/21 05:18:34;;;;;;;40.15;30.42;;;2.90;99.90;;;;;;5013818;28;20056;-64
2022/03/21 05:21:00;;;;;;;44.25;32.03;;;2.90;99.90;;;;;;5014042;28;20114;-64
2022/03/21 05:31:39;;;;;;;41.63;31.15;;;2.80;99.90;;;;;;5013927;28;20046;-63
2022/03/21 05:36:49;;;;;;;42.25;30.75;;;2.80;99.90;;;;;;5013917;28;20037;-63
2022/03/21 05:39:14;;;;;;;43.40;30.55;;;2.80;99.90;;;;;;5013658;28;20086;-65
2022/03/21 05:41:40;;;;;;;41.83;30.15;;;2.80;99.90;;;;;;5014351;28;20131;-62
2022/03/21 05:44:07;;;;;;;42.42;30.48;;;2.90;99.90;;;;;;5014131;28;20339;-63
2022/03/21 05:46:33;;;;;;;44.47;31.17;;;2.90;99.90;;;;;;4996336;28;20061;-64
2022/03/21 05:48:59;;;;;;;41.83;30.05;;;2.90;99.90;;;;;;5013379;28;20049;-63
2022/03/21 05:51:30;;;;;;;43.50;31.00;;;2.90;99.90;;;;;;5013950;28;20053;-63
2022/03/21 05:54:05;;;;;;;41.80;29.45;;;2.90;99.90;;;;;;5014137;28;20042;-63
2022/03/21 05:56:31;;;;;;;41.75;29.20;;;2.90;99.90;;;;;;5003664;28;20039;-65
2022/03/21 06:00:20;;;;;;;43.60;30.92;;;2.90;99.90;;;;;;4995918;28;20129;-63
2022/03/21 06:01:47;;;;;;;40.67;29.58;;;2.90;99.90;;;;;;4995960;28;20069;-63
2022/03/21 06:04:13;;;;;;;41.00;30.42;;;2.90;99.90;;;;;;4996728;28;20375;-66
2022/03/21 06:06:38;;;;;;;43.22;30.30;;;3.00;99.90;;;;;;4995410;28;20454;-62
2022/03/21 06:09:04;;;;;;;40.35;30.15;;;3.00;99.90;;;;;;4996204;28;20058;-64
2022/03/21 06:11:29;;;;;;;41.45;29.38;;;3.10;99.90;;;;;;5016909;28;20065;-62
2022/03/21 06:13:55;;;;;;;41.60;30.13;;;3.10;99.90;;;;;;5017604;28;20447;-62
2022/03/21 06:16:21;;;;;;;40.85;30.25;;;3.20;99.90;;;;;;5017279;28;20049;-63
2022/03/21 06:18:46;;;;;;;42.75;30.15;;;3.20;99.90;;;;;;5017575;28;20372;-63
2022/03/21 06:21:13;;;;;;;43.60;30.02;;;3.30;99.90;;;;;;5017026;28;20405;-63
2022/03/21 06:23:39;;;;;;;42.60;30.38;;;3.50;99.90;;;;;;5017677;28;20116;-63
2022/03/21 06:26:06;;;;;;;37.42;27.88;;;3.70;99.90;;;;;;5017168;28;20056;-62
2022/03/21 06:28:32;;;;;;;44.17;29.38;;;4.10;99.90;;;;;;5017509;28;20100;-63
2022/03/21 06:30:58;;;;;;;41.75;28.35;;;4.50;99.90;;;;;;4999534;28;20052;-65
2022/03/21 06:33:27;;;;;;;38.03;26.23;;;4.70;99.90;;;;;;5017243;28;20050;-63
2022/03/21 06:35:54;;;;;;;39.88;26.42;;;5.00;99.90;;;;;;5017750;28;20324;-64
2022/03/21 06:38:20;;;;;;;35.30;24.90;;;5.20;99.90;;;;;;5017233;28;20030;-64
2022/03/21 06:40:46;;;;;;;33.85;24.42;;;5.50;99.90;;;;;;5017161;28;20045;-65
2022/03/21 06:43:12;;;;;;;37.90;26.33;;;5.80;99.90;;;;;;4999508;28;20056;-65
2022/03/21 06:45:38;;;;;;;33.05;23.92;;;6.00;99.90;;;;;;5016821;28;20362;-64
2022/03/21 06:48:04;;;;;;;30.48;23.77;;;6.30;99.90;;;;;;5016883;28;20056;-66
2022/03/21 06:50:30;;;;;;;33.53;23.83;;;6.50;99.90;;;;;;5016651;28;20121;-67
2022/03/21 06:52:56;;;;;;;33.65;23.98;;;6.70;99.90;;;;;;5017314;28;20038;-68
2022/03/21 06:55:21;;;;;;;34.97;22.38;;;6.70;99.90;;;;;;5016671;28;20038;-66
2022/03/21 06:57:47;;;;;;;33.40;22.65;;;6.60;99.90;;;;;;5017412;28;20505;-64
2022/03/21 07:00:13;;;;;;;33.67;22.92;;;6.50;99.90;;;;;;5016855;28;20061;-65
2022/03/21 07:02:42;;;;;;;35.15;23.30;;;6.40;99.90;;;;;;5017109;28;20374;-65
2022/03/21 07:05:08;;;;;;;31.58;21.83;;;6.30;99.90;;;;;;5016531;28;20543;-65
2022/03/21 07:07:34;;;;;;;29.10;21.75;;;6.30;99.90;;;;;;5017079;28;20152;-64
2022/03/21 07:10:01;;;;;;;32.88;22.35;;;6.30;99.90;;;;;;5016564;28;20038;-66
2022/03/21 07:12:27;;;;;;;32.58;22.13;;;6.30;99.90;;;;;;5016491;28;20045;-64
2022/03/21 07:14:53;;;;;;;29.55;21.55;;;6.30;99.90;;;;;;4996390;28;20035;-66
2022/03/21 07:17:20;;;;;;;27.38;20.52;;;6.30;99.90;;;;;;4995720;28;20173;-66
2022/03/21 07:19:46;;;;;;;29.00;21.55;;;6.30;99.90;;;;;;4999193;28;20049;-66
2022/03/21 07:22:13;;;;;;;32.35;22.38;;;6.40;99.90;;;;;;4995499;28;20116;-65
2022/03/21 07:24:38;;;;;;;29.27;20.98;;;6.40;99.90;;;;;;4998787;28;20044;-65
2022/03/21 07:27:05;;;;;;;29.35;21.00;;;6.50;99.90;;;;;;4998464;28;20452;-66
2022/03/21 07:29:31;;;;;;;30.30;20.90;;;6.50;99.90;;;;;;4998504;28;20046;-65
2022/03/21 07:31:57;;;;;;;32.80;23.25;;;6.60;99.90;;;;;;4998247;28;20439;-68
2022/03/21 07:34:24;;;;;;;29.67;20.90;;;6.70;99.90;;;;;;4995585;28;20049;-65
2022/03/21 07:36:50;;;;;;;30.38;20.48;;;6.80;99.90;;;;;;4996173;28;20506;-65
2022/03/21 07:39:16;;;;;;;31.73;20.40;;;6.80;99.90;;;;;;4999533;28;20037;-66
2022/03/21 07:41:42;;;;;;;31.85;22.08;;;7.00;99.90;;;;;;5016540;28;20069;-67
2022/03/21 07:44:08;;;;;;;33.85;22.17;;;7.10;99.90;;;;;;5010507;28;20084;-65
2022/03/21 07:49:17;;;;;;;31.17;21.13;;;7.40;99.90;;;;;;5015845;28;20082;-65
2022/03/21 07:51:43;;;;;;;30.67;21.13;;;7.50;99.90;;;;;;5015918;28;20323;-65
2022/03/21 07:54:13;;;;;;;33.13;22.15;;;7.70;99.90;;;;;;5015948;28;20092;-66
2022/03/21 07:56:40;;;;;;;33.92;21.70;;;7.70;99.90;;;;;;5015334;28;20474;-64
2022/03/21 07:59:06;;;;;;;29.77;20.08;;;7.70;99.90;;;;;;5015475;28;20049;-66
2022/03/21 08:01:32;;;;;;;29.73;20.90;;;7.80;99.90;;;;;;5015583;28;20088;-65
2022/03/21 08:04:00;;;;;;;32.65;19.88;;;7.90;99.90;;;;;;5016017;28;20073;-66
2022/03/21 08:06:26;;;;;;;32.30;19.60;;;7.90;99.90;;;;;;5015557;28;20158;-64
2022/03/21 08:08:53;;;;;;;43.42;20.20;;;8.00;99.90;;;;;;5015361;28;20121;-66
2022/03/21 08:11:19;;;;;;;30.73;20.00;;;8.10;99.90;;;;;;4997390;28;20137;-65
2022/03/21 08:13:49;;;;;;;27.10;18.90;;;8.10;99.90;;;;;;5015538;28;20141;-65
2022/03/21 08:16:19;;;;;;;30.17;19.98;;;8.10;99.90;;;;;;4999604;28;20048;-68
2022/03/21 08:18:54;;;;;;;24.58;18.88;;;8.10;99.90;;;;;;4994797;28;20034;-65
2022/03/21 08:21:20;;;;;;;;;;;8.20;99.90;;;;;;5015623;28;20057;-65
2022/03/21 08:23:47;;;;;;;30.45;19.10;;;8.40;99.90;;;;;;5011912;28;20376;-65
2022/03/21 08:26:13;;;;;;;26.83;19.65;;;8.50;99.90;;;;;;4995598;28;20088;-64
2022/03/21 08:28:38;;;;;;;33.05;20.02;;;8.60;99.90;;;;;;4994871;28;20158;-64
2022/03/21 08:31:04;;;;;;;26.92;19.15;;;8.70;99.90;;;;;;5012664;28;20501;-65
2022/03/21 08:33:30;;;;;;;26.77;19.63;;;8.80;99.90;;;;;;5014462;28;20129;-65
2022/03/21 08:35:55;;;;;;;26.08;19.05;;;8.90;99.90;;;;;;5014876;28;20121;-65
2022/03/21 08:38:21;;;;;;;27.27;19.10;;;9.10;99.90;;;;;;5014883;28;20109;-64
2022/03/21 08:40:47;;;;;;;27.70;18.42;;;9.20;99.90;;;;;;5014636;28;20042;-65
2022/03/21 08:43:12;;;;;;;27.23;18.23;;;9.30;99.90;;;;;;5014827;28;20072;-65
2022/03/21 08:45:40;;;;;;;27.23;19.08;;;9.50;99.90;;;;;;4995745;28;20482;-64
2022/03/21 08:48:06;;;;;;;26.70;18.42;;;9.60;99.90;;;;;;4993845;28;20046;-64
2022/03/21 08:50:34;;;;;;;24.48;17.40;;;9.80;99.90;;;;;;4989659;28;20184;-65
2022/03/21 08:53:00;;;;;;;25.50;17.95;;;9.80;99.90;;;;;;4999108;28;20053;-66
2022/03/21 08:55:26;;;;;;;26.42;17.40;;;9.90;99.90;;;;;;4994876;28;20038;-65
2022/03/21 08:57:52;;;;;;;28.48;17.00;;;10.00;99.90;;;;;;4995229;28;20042;-64
2022/03/21 09:00:18;;;;;;;27.05;17.70;;;10.10;99.90;;;;;;5005526;28;20057;-65
2022/03/21 09:02:46;;;;;;;26.75;17.60;;;10.20;99.90;;;;;;5014681;28;20466;-64
2022/03/21 09:05:14;;;;;;;28.10;18.90;;;10.30;99.90;;;;;;5014404;28;20348;-65
2022/03/21 09:07:41;;;;;;;26.90;17.80;;;10.50;99.90;;;;;;5015013;28;20045;-64
2022/03/21 09:10:08;;;;;;;28.45;17.98;;;10.60;99.90;;;;;;5013983;28;20049;-65
2022/03/21 09:12:34;;;;;;;26.13;17.63;;;10.60;99.90;;;;;;4996769;28;20702;-64
2022/03/21 09:15:00;;;;;;;27.58;17.52;;;10.80;99.90;;;;;;5014019;28;20042;-65
2022/03/21 09:17:28;;;;;;;25.38;17.85;;;10.90;99.90;;;;;;5013870;28;20459;-64
2022/03/21 09:19:54;;;;;;;26.30;16.65;;;10.90;99.90;;;;;;5014026;28;20113;-65
2022/03/21 09:22:19;;;;;;;24.38;17.48;;;11.00;99.90;;;;;;5014369;28;20403;-65
2022/03/21 09:24:45;;;;;;;25.85;16.80;;;11.10;99.90;;;;;;5014067;28;20136;-65
2022/03/21 09:27:11;;;;;;;22.90;16.05;;;11.10;99.90;;;;;;5014337;28;20461;-65
2022/03/21 09:29:37;;;;;;;25.95;16.67;;;11.30;99.90;;;;;;5012945;28;20057;-65
2022/03/21 09:32:03;;;;;;;24.73;16.30;;;11.30;99.90;;;;;;5014087;28;20060;-66
2022/03/21 09:34:31;;;;;;;23.55;16.55;;;11.50;99.90;;;;;;5013969;28;20037;-64
2022/03/21 09:36:57;;;;;;;23.10;14.68;;;11.50;99.90;;;;;;5014117;28;20121;-65
2022/03/21 09:39:22;;;;;;;28.90;16.45;;;11.60;99.90;;;;;;5013866;28;20065;-66
2022/03/21 09:41:48;;;;;;;26.95;16.98;;;11.70;99.90;;;;;;5013752;28;20048;-65
2022/03/21 09:44:14;;;;;;;26.25;16.88;;;11.70;99.90;;;;;;5013692;28;20117;-65
2022/03/21 09:46:45;;;;;;;23.00;16.60;;;11.80;99.90;;;;;;5013704;28;20077;-65
2022/03/21 09:49:13;;;;;;;24.42;16.88;;;11.80;99.90;;;;;;5014060;28;20033;-65
2022/03/21 09:51:39;;;;;;;23.38;17.20;;;11.90;99.90;;;;;;5002850;28;20084;-65
2022/03/21 09:54:05;;;;;;;25.13;16.58;;;11.90;99.90;;;;;;4994012;28;20353;-65
2022/03/21 09:56:31;;;;;;;22.85;16.35;;;11.90;99.90;;;;;;4994088;28;20093;-65
2022/03/21 09:58:59;;;;;;;27.70;16.58;;;11.90;99.90;;;;;;4994557;28;20034;-65
2022/03/21 10:01:25;;;;;;;26.88;16.65;;;12.00;99.90;;;;;;5013178;28;20049;-65
2022/03/21 10:03:52;;;;;;;26.15;16.85;;;12.10;99.90;;;;;;5013888;28;20069;-66
2022/03/21 10:06:45;;;;;;;24.70;16.42;;;12.10;99.90;;;;;;5013498;28;20183;-65
2022/03/21 10:09:12;;;;;;;25.67;17.20;;;12.10;99.90;;;;;;5013773;28;20046;-65
2022/03/21 10:11:39;;;;;;;26.67;17.70;;;12.10;99.90;;;;;;4996159;28;20066;-66
2022/03/21 10:14:29;;;;;;;24.73;16.67;;;12.10;99.90;;;;;;5013751;28;20466;-65
2022/03/21 10:17:01;;;;;;;27.55;17.45;;;12.20;99.90;;;;;;5013813;28;20129;-65
2022/03/21 10:19:39;;;;;;;24.77;17.35;;;12.30;99.90;;;;;;5013346;28;20034;-65
2022/03/21 10:22:10;;;;;;;26.30;18.08;;;12.30;99.90;;;;;;5013920;28;20038;-65
2022/03/21 10:24:41;;;;;;;26.00;17.50;;;12.30;99.90;;;;;;5013320;28;20048;-65
2022/03/21 10:27:26;;;;;;;28.85;17.45;;;12.40;99.90;;;;;;5013745;28;20096;-66
2022/03/21 10:29:53;;;;;;;27.70;18.25;;;12.40;99.90;;;;;;5013280;28;20042;-65
2022/03/21 10:32:39;;;;;;;24.33;16.88;;;12.50;99.90;;;;;;5013459;28;20052;-66
2022/03/21 10:35:13;;;;;;;24.83;18.15;;;12.60;99.90;;;;;;5012947;28;20072;-66
2022/03/21 10:37:52;;;;;;;25.83;17.70;;;12.60;99.90;;;;;;5013902;28;20046;-65
2022/03/21 10:40:25;;;;;;;25.20;17.77;;;12.80;99.90;;;;;;5012854;28;20477;-65
2022/03/21 10:42:59;;;;;;;23.73;17.63;;;12.80;99.90;;;;;;5013641;28;20049;-65
2022/03/21 10:45:34;;;;;;;26.42;17.40;;;12.90;99.90;;;;;;4996081;28;20104;-66
2022/03/21 10:48:03;;;;;;;30.75;17.95;;;12.90;99.90;;;;;;5013520;28;20088;-66
2022/03/21 10:50:42;;;;;;;26.25;17.35;;;12.90;99.90;;;;;;5011597;28;20042;-65
2022/03/21 10:53:09;;;;;;;23.92;17.02;;;12.90;99.90;;;;;;4993749;28;20117;-66
2022/03/21 10:55:35;;;;;;;24.13;16.65;;;12.90;99.90;;;;;;4994620;28;20050;-67
2022/03/21 10:58:02;;;;;;;23.60;17.02;;;12.90;99.90;;;;;;4997281;28;20034;-67
2022/03/21 11:00:29;;;;;;;25.67;15.48;;;12.90;99.90;;;;;;5007943;28;20483;-66
2022/03/21 11:03:06;;;;;;;23.25;16.73;;;12.70;99.90;;;;;;5015088;28;20092;-68
2022/03/21 11:05:43;;;;;;;23.65;16.77;;;12.80;99.90;;;;;;4993801;28;20418;-66
2022/03/21 11:08:11;;;;;;;23.65;17.33;;;12.90;99.90;;;;;;4996687;28;20045;-66
2022/03/21 11:10:39;;;;;;;23.65;17.52;;;12.80;99.90;;;;;;5008392;28;20038;-66
2022/03/21 11:13:07;;;;;;;25.98;17.38;;;12.90;99.90;;;;;;5015733;28;20137;-68
2022/03/21 11:15:35;;;;;;;23.70;16.77;;;13.00;99.90;;;;;;5015736;28;20371;-68
2022/03/21 11:18:03;;;;;;;24.00;16.95;;;13.10;99.90;;;;;;5016232;28;20034;-67
2022/03/21 11:20:29;;;;;;;23.40;16.70;;;13.20;99.90;;;;;;4998858;28;20038;-66
2022/03/21 11:22:56;;;;;;;24.70;16.60;;;13.10;99.90;;;;;;5016010;28;20395;-70
2022/03/21 11:25:29;;;;;;;27.80;18.25;;;13.20;99.90;;;;;;5015987;28;20351;-70
2022/03/21 11:28:27;;;;;;;25.88;17.85;;;13.40;99.90;;;;;;5016260;28;20049;-65
2022/03/21 11:31:36;;;;;;;25.15;18.25;;;13.40;99.90;;;;;;5015589;28;20423;-65
2022/03/21 11:34:54;;;;;;;23.58;17.23;;;13.30;99.90;;;;;;5014049;28;20077;-66
2022/03/21 11:37:29;;;;;;;27.70;18.45;;;13.50;99.90;;;;;;5001080;28;20101;-66
2022/03/21 11:40:22;;;;;;;28.45;18.55;;;13.70;99.90;;;;;;5000289;28;20043;-65
2022/03/21 11:42:48;;;;;;;24.80;18.50;;;13.80;99.90;;;;;;4998654;28;20078;-66
2022/03/21 11:45:25;;;;;;;25.63;17.65;;;13.90;99.90;;;;;;4995005;28;20080;-66
2022/03/21 11:48:16;;;;;;;27.73;17.65;;;13.80;99.90;;;;;;5015586;28;20046;-66
2022/03/21 11:50:42;;;;;;;27.00;17.63;;;13.90;99.90;;;;;;5007838;28;20042;-67
2022/03/21 11:53:09;;;;;;;28.17;17.88;;;14.00;99.90;;;;;;4995877;28;20514;-66
2022/03/21 11:55:42;;;;;;;25.20;17.55;;;14.00;99.90;;;;;;5006769;28;20370;-66
2022/03/21 11:58:38;;;;;;;26.08;17.50;;;14.00;99.90;;;;;;5015930;28;20046;-66
2022/03/21 12:01:07;;;;;;;22.38;17.45;;;14.10;99.90;;;;;;5015418;28;20107;-67
2022/03/21 12:03:34;;;;;;;28.45;17.63;;;14.10;99.90;;;;;;5015956;28;20052;-66
2022/03/21 12:06:24;;;;;;;22.70;15.57;;;14.30;99.90;;;;;;4998346;28;20046;-66
2022/03/21 12:08:59;;;;;;;22.77;16.17;;;14.50;99.90;;;;;;4998441;28;20053;-67
2022/03/21 12:11:46;;;;;;;20.60;15.60;;;14.40;99.90;;;;;;5015211;28;20054;-67
2022/03/21 12:14:21;;;;;;;23.13;15.75;;;14.40;99.90;;;;;;5015559;28;20042;-66
2022/03/21 12:17:05;;;;;;;24.70;16.05;;;14.40;99.90;;;;;;5015775;28;20046;-68
2022/03/21 12:19:57;;;;;;;23.23;15.73;;;14.40;99.70;;;;;;5014884;28;20046;-66
2022/03/21 12:22:28;;;;;;;22.98;15.60;;;14.40;99.90;;;;;;5015840;28;20119;-66
2022/03/21 12:25:06;;;;;;;22.50;15.00;;;14.50;99.90;;;;;;5015262;28;20049;-66
2022/03/21 12:27:34;;;;;;;21.75;15.90;;;14.60;99.70;;;;;;4998224;28;20510;-67
2022/03/21 12:30:35;;;;;;;22.48;14.85;;;14.70;99.80;;;;;;5014875;28;20045;-67
2022/03/21 12:33:10;;;;;;;24.52;15.02;;;14.70;99.90;;;;;;4993771;28;20050;-68
2022/03/21 12:35:45;;;;;;;22.95;15.40;;;14.60;99.90;;;;;;5012220;28;20081;-68
2022/03/21 12:38:21;;;;;;;24.05;15.63;;;14.70;99.90;;;;;;5015110;28;20414;-66
2022/03/21 12:40:47;;;;;;;21.30;14.80;;;14.80;99.10;;;;;;5015347;28;20050;-68
2022/03/21 12:43:14;;;;;;;23.02;15.38;;;14.90;98.90;;;;;;4997928;28;20056;-68
2022/03/21 12:45:44;;;;;;;23.33;16.00;;;14.90;99.00;;;;;;5014347;28;20115;-68
2022/03/21 12:48:10;;;;;;;23.48;15.65;;;14.90;98.90;;;;;;5014974;28;20053;-66
2022/03/21 12:50:38;;;;;;;23.05;14.98;;;14.70;98.60;;;;;;5011237;28;20386;-68
2022/03/21 12:53:06;;;;;;;23.05;14.98;;;14.70;98.90;;;;;;5014061;28;20075;-69
2022/03/21 12:55:33;;;;;;;28.08;16.77;;;14.70;99.40;;;;;;5014304;28;20105;-68
2022/03/21 12:58:10;;;;;;;24.63;16.20;;;14.80;99.30;;;;;;5014592;28;20049;-67
2022/03/21 13:00:39;;;;;;;23.38;14.88;;;14.80;99.20;;;;;;5012810;28;20447;-66